Cherrytown, New York
Current Conditions -  °F | °C
As of 3:54 AM on Wednesday 28 Jan 2015 (Local Time) from KMGJ Reporting Station
Clear Clear  
Wind Chill:   Ceiling: Unl
Heat Index: 15°   Visibility: 10mi
Dew Point: -3°   Wind: 9mph
Humidity: 45%   Direction: 300°WNW
Pressure: 29.88"   Gusts: 21mph
Location:  41.7943°N, 74.3146°W
Report Text: KMGJ 280854Z AUTO 30008G18KT 280V340 10SM CLR M09/M19 A2988 RMK AO2 SLP122 T10941194 53014 TSNO
Loading
Personal Weather Stations






























Interactive Weather Map New forecast layout! Learn more

10-Day Weather Forecast

Advertisements
Track Severe Weather on mobile